createdAt,value
2018-10-11T00:01:05.405Z,12.20
2018-10-11T00:03:34.394Z,12.10
2018-10-11T00:06:02.922Z,11.90
2018-10-11T00:08:31.522Z,11.80
2018-10-11T00:11:00.309Z,11.80
2018-10-11T00:13:28.772Z,11.90
2018-10-11T00:15:57.691Z,11.90
2018-10-11T00:18:26.287Z,12.00
2018-10-11T00:20:54.958Z,11.90
2018-10-11T00:23:23.487Z,11.90
2018-10-11T00:25:52.012Z,11.80
2018-10-11T00:28:20.609Z,11.60
2018-10-11T00:30:49.582Z,11.60
2018-10-11T00:33:17.974Z,11.40
2018-10-11T00:35:46.618Z,11.40
2018-10-11T00:38:15.336Z,11.30
2018-10-11T00:40:43.955Z,11.30
2018-10-11T00:43:12.533Z,11.30
2018-10-11T00:45:41.931Z,11.30
2018-10-11T00:48:10.727Z,11.40
2018-10-11T00:50:39.367Z,11.50
2018-10-11T00:53:08.051Z,11.60
2018-10-11T00:55:36.761Z,11.40
2018-10-11T00:58:05.745Z,11.40
2018-10-11T01:00:35.203Z,11.30
2018-10-11T01:03:03.766Z,11.30
2018-10-11T01:05:32.435Z,11.30
2018-10-11T01:08:01.573Z,11.40
2018-10-11T01:10:30.288Z,11.40
2018-10-11T01:12:59.053Z,11.50
2018-10-11T01:15:27.543Z,11.50
2018-10-11T01:17:56.104Z,11.50
2018-10-11T01:20:24.750Z,11.50
2018-10-11T01:22:53.235Z,11.40
2018-10-11T01:25:21.718Z,11.30
2018-10-11T01:27:50.398Z,11.20
2018-10-11T01:30:18.955Z,11.20
2018-10-11T01:32:47.463Z,11.30
2018-10-11T01:35:15.946Z,11.30
2018-10-11T01:37:45.393Z,11.30
2018-10-11T01:40:13.954Z,11.10
2018-10-11T01:42:42.733Z,11.00
2018-10-11T01:45:11.776Z,11.10
2018-10-11T01:47:40.420Z,11.10
2018-10-11T01:50:09.094Z,11.00
2018-10-11T01:52:37.819Z,11.00
2018-10-11T01:55:07.039Z,11.10
2018-10-11T01:57:35.699Z,11.20
2018-10-11T02:00:04.195Z,11.20
2018-10-11T02:02:32.832Z,11.10
2018-10-11T02:05:08.286Z,10.90
2018-10-11T02:07:36.936Z,11.00
2018-10-11T02:10:05.645Z,11.00
2018-10-11T02:12:34.193Z,11.00
2018-10-11T02:15:02.754Z,11.00
2018-10-11T02:17:31.326Z,11.10
2018-10-11T02:19:59.959Z,11.10
2018-10-11T02:22:28.665Z,11.00
2018-10-11T02:24:57.227Z,10.90
2018-10-11T02:27:25.754Z,10.80
2018-10-11T02:29:54.200Z,10.80
2018-10-11T02:32:22.810Z,10.90
2018-10-11T02:34:51.450Z,10.90
2018-10-11T02:37:19.990Z,10.70
2018-10-11T02:39:48.570Z,10.70
2018-10-11T02:42:17.107Z,10.80
2018-10-11T02:44:45.580Z,10.80
2018-10-11T02:47:14.524Z,10.80
2018-10-11T02:49:43.366Z,10.80
2018-10-11T02:52:12.512Z,10.80
2018-10-11T02:54:41.197Z,10.80
2018-10-11T02:57:19.507Z,10.80
2018-10-11T02:59:48.090Z,10.80
2018-10-11T03:02:16.689Z,10.80
2018-10-11T03:04:47.174Z,10.80
2018-10-11T03:07:16.559Z,10.80
2018-10-11T03:09:45.311Z,10.80
2018-10-11T03:12:14.040Z,10.70
2018-10-11T03:14:42.634Z,10.80
2018-10-11T03:17:11.413Z,10.70
2018-10-11T03:19:40.856Z,10.60
2018-10-11T03:22:09.622Z,10.60
2018-10-11T03:24:38.301Z,10.50
2018-10-11T03:27:06.759Z,10.50
2018-10-11T03:29:35.534Z,10.40
2018-10-11T03:32:04.709Z,10.40
2018-10-11T03:34:33.391Z,10.40
2018-10-11T03:37:02.097Z,10.20
2018-10-11T03:39:30.804Z,10.20
2018-10-11T03:41:59.906Z,10.30
2018-10-11T03:44:28.959Z,10.40
2018-10-11T03:46:57.619Z,10.40
2018-10-11T03:49:26.380Z,10.40
2018-10-11T03:51:55.071Z,10.40
2018-10-11T03:54:23.783Z,10.50
2018-10-11T03:56:52.277Z,10.50
2018-10-11T03:59:21.963Z,10.40
2018-10-11T04:01:50.727Z,10.20
2018-10-11T04:04:19.719Z,10.20
2018-10-11T04:06:48.198Z,10.30
2018-10-11T04:09:16.795Z,10.30
2018-10-11T04:11:45.541Z,10.20
2018-10-11T04:14:14.297Z,10.20
2018-10-11T04:16:42.828Z,10.20
2018-10-11T04:19:11.754Z,10.20
2018-10-11T04:21:40.439Z,10.20
2018-10-11T04:24:09.189Z,10.30
2018-10-11T04:26:38.483Z,10.10
2018-10-11T04:29:07.076Z,9.90
2018-10-11T04:31:35.584Z,9.90
2018-10-11T04:34:04.279Z,9.90
2018-10-11T04:36:32.823Z,9.90
2018-10-11T04:39:01.327Z,9.90
2018-10-11T04:41:29.876Z,10.00
2018-10-11T04:43:58.315Z,9.90
2018-10-11T04:46:26.795Z,9.90
2018-10-11T04:48:55.276Z,9.90
2018-10-11T04:51:23.818Z,10.00
2018-10-11T04:53:55.808Z,10.00
2018-10-11T04:56:25.812Z,10.00
2018-10-11T04:58:55.247Z,9.80
2018-10-11T05:01:23.837Z,9.70
2018-10-11T05:03:52.915Z,9.70
2018-10-11T05:06:21.352Z,9.70
2018-10-11T05:08:49.791Z,9.70
2018-10-11T05:11:18.379Z,9.70
2018-10-11T05:13:48.878Z,9.80
2018-10-11T05:16:17.866Z,9.80
2018-10-11T05:19:17.509Z,9.90
2018-10-11T05:21:46.065Z,9.90
2018-10-11T05:24:14.641Z,9.80
2018-10-11T05:26:43.346Z,9.60
2018-10-11T05:29:11.826Z,9.60
2018-10-11T05:31:40.338Z,9.70
2018-10-11T05:34:09.009Z,9.80
2018-10-11T05:36:37.467Z,9.70
2018-10-11T05:39:07.046Z,9.80
2018-10-11T05:41:35.992Z,9.50
2018-10-11T05:44:04.525Z,9.50
2018-10-11T05:46:34.303Z,9.60
2018-10-11T05:49:05.171Z,9.60
2018-10-11T05:51:34.652Z,9.70
2018-10-11T05:54:03.727Z,9.80
2018-10-11T05:56:34.820Z,9.90
2018-10-11T05:59:03.943Z,9.90
2018-10-11T06:01:32.885Z,9.90
2018-10-11T06:04:02.114Z,9.70
2018-10-11T06:06:30.753Z,9.70
2018-10-11T06:08:59.837Z,9.80
2018-10-11T06:11:49.453Z,10.00
2018-10-11T06:14:18.105Z,10.10
2018-10-11T06:16:46.667Z,10.10
2018-10-11T06:19:15.850Z,10.10
2018-10-11T06:21:45.072Z,10.10
2018-10-11T06:24:13.769Z,10.10
2018-10-11T06:26:42.959Z,10.20
2018-10-11T06:29:11.935Z,10.30
2018-10-11T06:31:40.728Z,10.40
2018-10-11T06:34:09.600Z,10.50
2018-10-11T06:36:38.800Z,10.60
2018-10-11T06:40:05.012Z,10.70
2018-10-11T06:42:34.002Z,10.80
2018-10-11T06:45:02.881Z,10.90
2018-10-11T06:47:32.166Z,11.00
2018-10-11T06:50:02.472Z,11.10
2018-10-11T06:52:31.867Z,11.20
2018-10-11T06:55:00.590Z,11.40
2018-10-11T06:57:29.038Z,11.50
2018-10-11T06:59:57.483Z,11.50
2018-10-11T07:02:26.845Z,11.50
2018-10-11T07:04:55.710Z,11.60
2018-10-11T07:07:24.609Z,11.90
2018-10-11T07:09:53.170Z,12.30
2018-10-11T07:12:21.966Z,12.60
2018-10-11T07:14:50.649Z,12.90
2018-10-11T07:17:19.242Z,13.20
2018-10-11T07:19:48.468Z,13.50
2018-10-11T07:22:17.018Z,13.70
2018-10-11T07:24:45.493Z,13.90
2018-10-11T07:27:14.264Z,14.00
2018-10-11T07:29:42.919Z,14.20
2018-10-11T07:32:11.440Z,14.50
2018-10-11T07:34:40.195Z,14.90
2018-10-11T07:37:08.729Z,15.30
2018-10-11T07:39:38.044Z,15.60
2018-10-11T07:42:06.599Z,15.90
2018-10-11T07:44:35.206Z,16.10
2018-10-11T07:47:03.733Z,15.80
2018-10-11T07:49:32.269Z,16.20
2018-10-11T07:52:00.732Z,16.60
2018-10-11T07:54:31.464Z,17.00
2018-10-11T07:57:01.285Z,17.20
2018-10-11T07:59:30.175Z,17.50
2018-10-11T08:01:58.882Z,17.80
2018-10-11T08:04:27.358Z,17.90
2018-10-11T08:06:55.934Z,18.00
2018-10-11T08:09:24.503Z,18.20
2018-10-11T08:11:53.079Z,18.30
2018-10-11T08:14:21.486Z,18.60
2018-10-11T08:16:50.404Z,18.60
2018-10-11T08:19:19.074Z,18.70
2018-10-11T08:21:47.809Z,18.80
2018-10-11T08:24:16.219Z,19.10
2018-10-11T08:26:44.856Z,19.30
2018-10-11T08:29:13.751Z,19.30
2018-10-11T08:31:42.667Z,18.80
2018-10-11T08:34:11.185Z,19.10
2018-10-11T08:36:39.647Z,19.50
2018-10-11T08:39:09.834Z,20.00
2018-10-11T08:41:38.963Z,20.20
2018-10-11T08:44:08.450Z,20.40
2018-10-11T08:46:36.951Z,20.40
2018-10-11T08:49:05.678Z,20.30
2018-10-11T08:51:34.124Z,20.20
2018-10-11T08:54:07.865Z,20.10
2018-10-11T08:56:36.636Z,20.20
2018-10-11T08:59:05.541Z,20.50
2018-10-11T09:01:34.092Z,20.30
2018-10-11T09:04:02.797Z,20.10
2018-10-11T09:06:31.367Z,20.40
2018-10-11T09:08:59.934Z,20.70
2018-10-11T09:11:28.502Z,20.90
2018-10-11T09:13:56.981Z,21.20
2018-10-11T09:16:25.626Z,21.00
2018-10-11T09:18:54.142Z,20.60
2018-10-11T09:21:22.782Z,20.90
2018-10-11T09:23:51.229Z,21.00
2018-10-11T09:26:19.705Z,21.10
2018-10-11T09:28:48.341Z,21.20
2018-10-11T09:31:16.964Z,21.30
2018-10-11T09:33:45.797Z,21.60
2018-10-11T09:36:14.509Z,21.70
2018-10-11T09:38:43.055Z,21.30
2018-10-11T09:41:11.734Z,21.70
2018-10-11T09:43:40.300Z,21.70
2018-10-11T09:46:08.882Z,21.90
2018-10-11T09:48:37.499Z,21.90
2018-10-11T09:51:06.178Z,21.80
2018-10-11T09:53:34.797Z,21.90
2018-10-11T09:56:03.527Z,22.10
2018-10-11T09:58:32.197Z,22.10
2018-10-11T10:01:06.183Z,21.90
2018-10-11T10:03:34.910Z,22.20
2018-10-11T10:06:03.737Z,22.30
2018-10-11T10:08:32.520Z,21.70
2018-10-11T10:11:01.262Z,21.80
2018-10-11T10:13:29.794Z,21.80
2018-10-11T10:15:58.414Z,21.90
2018-10-11T10:18:26.823Z,22.10
2018-10-11T10:20:55.909Z,22.30
2018-10-11T10:23:24.386Z,22.40
2018-10-11T10:25:52.862Z,22.00
2018-10-11T10:28:21.360Z,22.20
2018-10-11T10:30:53.024Z,22.10
2018-10-11T10:33:22.839Z,22.30
2018-10-11T10:35:51.548Z,22.50
2018-10-11T10:38:21.045Z,22.10
2018-10-11T10:40:49.644Z,22.30
2018-10-11T10:43:18.218Z,22.60
2018-10-11T10:45:46.867Z,22.60
2018-10-11T10:48:15.414Z,22.50
2018-10-11T10:50:43.885Z,22.00
2018-10-11T10:53:12.409Z,22.40
2018-10-11T10:55:41.089Z,22.80
2018-10-11T10:58:09.602Z,23.00
2018-10-11T11:00:38.547Z,23.20
2018-10-11T11:03:07.305Z,23.20
2018-10-11T11:05:35.886Z,23.00
2018-10-11T11:08:04.416Z,22.60
2018-10-11T11:10:33.070Z,22.80
2018-10-11T11:13:01.686Z,22.90
2018-10-11T11:15:30.214Z,22.90
2018-10-11T11:17:58.702Z,23.10
2018-10-11T11:20:27.234Z,23.70
2018-10-11T11:22:56.066Z,24.20
2018-10-11T11:25:24.600Z,24.20
2018-10-11T11:27:53.075Z,23.70
2018-10-11T11:30:22.278Z,23.70
2018-10-11T11:32:50.717Z,23.50
2018-10-11T11:35:19.278Z,23.50
2018-10-11T11:37:47.838Z,23.20
2018-10-11T11:40:16.402Z,23.40
2018-10-11T11:42:44.880Z,23.40
2018-10-11T11:45:13.698Z,23.30
2018-10-11T11:47:42.203Z,23.70
2018-10-11T11:50:10.734Z,23.60
2018-10-11T11:52:39.254Z,23.30
2018-10-11T11:55:07.869Z,23.30
2018-10-11T11:57:36.548Z,23.50
2018-10-11T12:00:05.371Z,24.00
2018-10-11T12:02:34.222Z,24.10
2018-10-11T12:05:02.756Z,24.50
2018-10-11T12:07:31.205Z,24.80
2018-10-11T12:09:59.883Z,24.30
2018-10-11T12:13:07.341Z,24.20
2018-10-11T12:15:36.585Z,24.20
2018-10-11T12:18:06.170Z,23.70
2018-10-11T12:20:35.948Z,23.80
2018-10-11T12:23:06.428Z,23.50
2018-10-11T12:25:35.401Z,23.10
2018-10-11T12:28:03.990Z,23.20
2018-10-11T12:30:33.281Z,23.70
2018-10-11T12:33:02.401Z,24.10
2018-10-11T12:35:31.557Z,24.20
2018-10-11T12:38:00.229Z,24.30
2018-10-11T12:40:28.785Z,24.20
2018-10-11T12:42:57.730Z,24.10
2018-10-11T12:45:26.355Z,24.10
2018-10-11T12:47:54.753Z,24.00
2018-10-11T12:50:23.699Z,24.10
2018-10-11T12:52:52.264Z,24.00
2018-10-11T12:55:20.976Z,24.10
2018-10-11T12:57:49.553Z,23.70
2018-10-11T13:00:18.524Z,23.50
2018-10-11T13:02:47.038Z,23.30
2018-10-11T13:05:15.581Z,23.00
2018-10-11T13:07:44.182Z,22.90
2018-10-11T13:10:12.950Z,23.00
2018-10-11T13:12:41.633Z,22.90
2018-10-11T13:15:10.281Z,23.00
2018-10-11T13:17:42.815Z,23.00
2018-10-11T13:20:09.096Z,23.00
2018-10-11T13:22:37.735Z,23.10
2018-10-11T13:25:06.347Z,23.00
2018-10-11T13:27:34.971Z,23.10
2018-10-11T13:30:03.592Z,23.10
2018-10-11T13:32:32.251Z,23.30
2018-10-11T13:35:00.820Z,23.40
2018-10-11T13:37:29.310Z,23.40
2018-10-11T13:39:58.177Z,23.70
2018-10-11T13:42:26.612Z,23.70
2018-10-11T13:44:55.383Z,24.00
2018-10-11T13:47:24.023Z,23.70
2018-10-11T13:49:52.798Z,23.70
2018-10-11T13:52:22.513Z,23.40
2018-10-11T13:54:50.115Z,23.20
2018-10-11T13:57:20.895Z,23.30
2018-10-11T13:59:47.215Z,23.20
2018-10-11T14:02:15.781Z,23.20
2018-10-11T14:04:44.356Z,23.20
2018-10-11T14:07:12.865Z,23.10
2018-10-11T14:09:41.365Z,23.10
2018-10-11T14:12:10.126Z,22.80
2018-10-11T14:14:38.776Z,22.60
2018-10-11T14:17:07.451Z,22.70
2018-10-11T14:19:36.089Z,22.70
2018-10-11T14:22:04.758Z,22.60
2018-10-11T14:24:33.356Z,22.40
2018-10-11T14:27:02.148Z,22.30
2018-10-11T14:29:30.634Z,22.20
2018-10-11T14:31:59.243Z,22.20
2018-10-11T14:34:27.791Z,22.20
2018-10-11T14:36:56.480Z,22.10
2018-10-11T14:39:25.221Z,22.10
2018-10-11T14:41:53.790Z,22.20
2018-10-11T14:44:22.613Z,22.10
2018-10-11T14:46:51.319Z,22.10
2018-10-11T14:49:19.974Z,22.10
2018-10-11T14:51:48.889Z,22.10
2018-10-11T14:54:17.546Z,22.10
2018-10-11T14:56:46.327Z,22.10
2018-10-11T14:59:15.033Z,22.00
2018-10-11T15:01:43.729Z,21.90
2018-10-11T15:04:12.288Z,21.90
2018-10-11T15:06:41.483Z,21.80
2018-10-11T15:09:10.706Z,21.80
2018-10-11T15:11:39.386Z,21.70
2018-10-11T15:14:07.949Z,21.70
2018-10-11T15:16:36.537Z,21.60
2018-10-11T15:19:06.863Z,21.60
2018-10-11T15:21:35.447Z,21.60
2018-10-11T15:24:03.940Z,21.50
2018-10-11T15:26:32.431Z,21.50
2018-10-11T15:29:00.928Z,21.40
2018-10-11T15:31:30.905Z,21.30
2018-10-11T15:33:59.554Z,21.30
2018-10-11T15:36:29.522Z,21.20
2018-10-11T15:38:59.461Z,21.10
2018-10-11T15:41:27.896Z,21.00
2018-10-11T15:43:59.092Z,21.00
2018-10-11T15:46:27.739Z,20.90
2018-10-11T15:48:57.090Z,20.90
2018-10-11T15:51:27.692Z,20.90
2018-10-11T15:53:56.168Z,20.80
2018-10-11T15:56:24.715Z,20.70
2018-10-11T15:58:53.633Z,20.70
2018-10-11T16:01:22.281Z,20.70
2018-10-11T16:03:51.103Z,20.60
2018-10-11T16:06:19.811Z,20.70
2018-10-11T16:08:48.393Z,20.60
2018-10-11T16:11:17.078Z,20.40
2018-10-11T16:13:45.670Z,20.30
2018-10-11T16:16:16.019Z,20.30
2018-10-11T16:18:45.021Z,20.30
2018-10-11T16:21:13.527Z,20.30
2018-10-11T16:23:42.314Z,20.20
2018-10-11T16:26:11.268Z,20.20
2018-10-11T16:28:40.886Z,20.10
2018-10-11T16:31:09.553Z,20.00
2018-10-11T16:33:38.034Z,19.80
2018-10-11T16:36:06.687Z,19.80
2018-10-11T16:38:35.979Z,19.80
2018-10-11T16:41:04.669Z,19.80
2018-10-11T16:43:33.162Z,19.80
2018-10-11T16:46:01.775Z,19.80
2018-10-11T16:48:31.140Z,19.90
2018-10-11T16:50:59.829Z,19.90
2018-10-11T16:53:28.297Z,19.80
2018-10-11T16:55:56.785Z,19.70
2018-10-11T16:58:25.361Z,19.70
2018-10-11T17:00:54.171Z,19.70
2018-10-11T17:03:23.247Z,19.70
2018-10-11T17:05:52.256Z,19.70
2018-10-11T17:08:21.025Z,19.70
2018-10-11T17:10:49.625Z,19.60
2018-10-11T17:13:18.307Z,19.50
2018-10-11T17:15:47.134Z,19.40
2018-10-11T17:18:15.682Z,19.50
2018-10-11T17:20:44.233Z,19.40
2018-10-11T17:23:12.681Z,19.40
2018-10-11T17:25:41.244Z,19.30
2018-10-11T17:28:09.777Z,19.40
2018-10-11T17:30:38.252Z,19.40
2018-10-11T17:33:07.088Z,19.40
2018-10-11T17:35:35.776Z,19.40
2018-10-11T17:38:04.359Z,19.40
2018-10-11T17:40:33.433Z,19.40
2018-10-11T17:43:02.154Z,19.30
2018-10-11T17:45:30.731Z,19.10
2018-10-11T17:48:00.234Z,19.00
2018-10-11T17:50:28.878Z,19.10
2018-10-11T17:52:57.498Z,19.20
2018-10-11T17:55:26.098Z,19.20
2018-10-11T17:57:54.633Z,19.20
2018-10-11T18:00:23.529Z,19.20
2018-10-11T18:02:52.262Z,19.20
2018-10-11T18:05:20.750Z,19.00
2018-10-11T18:07:49.535Z,18.90
2018-10-11T18:10:18.089Z,18.90
2018-10-11T18:12:46.704Z,18.70
2018-10-11T18:15:15.184Z,18.60
2018-10-11T18:17:43.962Z,18.50
2018-10-11T18:20:12.590Z,18.30
2018-10-11T18:22:41.113Z,18.20
2018-10-11T18:25:09.803Z,18.20
2018-10-11T18:27:38.266Z,18.00
2018-10-11T18:30:09.528Z,17.90
2018-10-11T18:32:38.233Z,18.10
2018-10-11T18:35:09.174Z,18.10
2018-10-11T18:37:37.814Z,18.10
2018-10-11T18:40:06.412Z,18.20
2018-10-11T18:42:35.205Z,18.10
2018-10-11T18:45:03.770Z,18.00
2018-10-11T18:47:32.464Z,18.00
2018-10-11T18:50:01.099Z,17.70
2018-10-11T18:52:29.661Z,17.70
2018-10-11T18:54:58.342Z,17.70
2018-10-11T18:57:26.785Z,17.80
2018-10-11T18:59:55.393Z,17.80
2018-10-11T19:02:23.985Z,17.90
2018-10-11T19:04:52.537Z,17.70
2018-10-11T19:07:21.114Z,17.70
2018-10-11T19:09:49.634Z,17.70
2018-10-11T19:12:18.137Z,17.80
2018-10-11T19:14:46.778Z,17.80
2018-10-11T19:17:15.545Z,17.90
2018-10-11T19:19:44.394Z,17.90
2018-10-11T19:22:13.277Z,17.90
2018-10-11T19:24:41.933Z,17.80
2018-10-11T19:27:10.940Z,17.50
2018-10-11T19:29:39.797Z,17.50
2018-10-11T19:32:08.525Z,17.50
2018-10-11T19:34:37.184Z,17.60
2018-10-11T19:37:05.711Z,17.60
2018-10-11T19:39:34.430Z,17.60
2018-10-11T19:42:03.795Z,17.60
2018-10-11T19:44:32.329Z,17.60
2018-10-11T19:47:01.140Z,17.60
2018-10-11T19:49:29.801Z,17.60
2018-10-11T19:51:58.422Z,17.60
2018-10-11T19:54:26.912Z,17.50
2018-10-11T19:56:56.186Z,17.50
2018-10-11T19:59:25.316Z,17.50
2018-10-11T20:01:54.047Z,17.40
2018-10-11T20:04:22.615Z,17.30
2018-10-11T20:06:51.650Z,17.30
2018-10-11T20:09:20.129Z,17.30
2018-10-11T20:11:48.693Z,17.40
2018-10-11T20:14:17.204Z,17.40
2018-10-11T20:16:45.924Z,17.40
2018-10-11T20:19:14.451Z,17.20
2018-10-11T20:21:42.910Z,17.00
2018-10-11T20:24:11.438Z,17.00
2018-10-11T20:26:40.020Z,16.90
2018-10-11T20:29:08.588Z,17.00
2018-10-11T20:31:37.275Z,17.00
2018-10-11T20:34:06.110Z,17.00
2018-10-11T20:36:34.675Z,17.00
2018-10-11T20:39:03.514Z,17.00
2018-10-11T20:41:32.133Z,17.00
2018-10-11T20:44:00.914Z,16.90
2018-10-11T20:46:29.742Z,16.90
2018-10-11T20:48:58.408Z,16.90
2018-10-11T20:51:26.881Z,16.90
2018-10-11T20:53:55.341Z,16.90
2018-10-11T20:56:23.879Z,16.90
2018-10-11T20:58:52.415Z,16.90
2018-10-11T21:01:20.896Z,16.90
2018-10-11T21:03:49.334Z,16.70
2018-10-11T21:06:17.959Z,16.70
2018-10-11T21:08:47.134Z,16.80
2018-10-11T21:11:16.309Z,16.80
2018-10-11T21:13:45.194Z,16.80
2018-10-11T21:16:14.728Z,16.80
2018-10-11T21:18:43.335Z,16.80
2018-10-11T21:21:11.876Z,16.80
2018-10-11T21:23:40.437Z,16.80
2018-10-11T21:26:08.968Z,16.80
2018-10-11T21:28:37.609Z,16.80
2018-10-11T21:31:06.603Z,16.80
2018-10-11T21:33:35.277Z,16.70
2018-10-11T21:36:04.201Z,16.70
2018-10-11T21:38:32.868Z,16.60
2018-10-11T21:41:01.414Z,16.60
2018-10-11T21:43:29.937Z,16.60
2018-10-11T21:45:58.511Z,16.60
2018-10-11T21:48:27.106Z,16.60
2018-10-11T21:50:55.643Z,16.60
2018-10-11T21:53:24.883Z,16.50
2018-10-11T21:55:53.430Z,16.30
2018-10-11T21:58:22.032Z,16.30
2018-10-11T22:00:56.061Z,16.20
2018-10-11T22:03:25.127Z,16.10
2018-10-11T22:05:53.792Z,16.00
2018-10-11T22:08:22.490Z,16.10
2018-10-11T22:10:51.223Z,16.10
2018-10-11T22:13:19.971Z,16.30
2018-10-11T22:15:48.566Z,16.30
2018-10-11T22:18:17.321Z,16.40
2018-10-11T22:20:46.060Z,16.40
2018-10-11T22:23:14.575Z,16.40
2018-10-11T22:25:43.188Z,16.40
2018-10-11T22:28:11.857Z,16.20
2018-10-11T22:30:40.553Z,16.20
2018-10-11T22:33:09.196Z,16.20
2018-10-11T22:35:38.079Z,16.30
2018-10-11T22:38:06.894Z,16.30
2018-10-11T22:40:35.392Z,16.40
2018-10-11T22:43:03.981Z,16.50
2018-10-11T22:45:32.467Z,16.50
2018-10-11T22:48:01.830Z,16.60
2018-10-11T22:50:30.314Z,16.60
2018-10-11T22:52:59.286Z,16.50
2018-10-11T22:55:31.241Z,16.50
2018-10-11T22:58:00.719Z,16.40
2018-10-11T23:00:29.349Z,16.20
2018-10-11T23:02:58.212Z,16.30
2018-10-11T23:05:26.858Z,16.30
2018-10-11T23:07:55.553Z,16.30
2018-10-11T23:10:24.148Z,16.30
2018-10-11T23:12:53.017Z,16.40
2018-10-11T23:15:21.560Z,16.30
2018-10-11T23:17:50.008Z,16.10
2018-10-11T23:20:18.438Z,16.10
2018-10-11T23:22:47.048Z,16.10
2018-10-11T23:25:15.740Z,16.10
2018-10-11T23:27:44.310Z,16.20
2018-10-11T23:30:13.318Z,16.20
2018-10-11T23:32:42.813Z,16.20
2018-10-11T23:35:12.126Z,16.20
2018-10-11T23:37:41.009Z,16.10
2018-10-11T23:40:11.064Z,16.10
2018-10-11T23:42:40.331Z,16.10
2018-10-11T23:45:10.657Z,16.00
2018-10-11T23:47:39.255Z,15.90
2018-10-11T23:50:08.062Z,15.70
2018-10-11T23:52:36.885Z,15.70
2018-10-11T23:55:07.059Z,15.60
2018-10-11T23:57:36.325Z,15.60
